Terminal Aerodrome Forecast
Issued by NWS Wilmington, OH

Current Version | Previous Version | Text Only | Print | Product List | Glossary Off
Versions: 1 2 3 4 5 6 7 8 9 10 11 12 13 14 15 16 17 18 19 20 21

982
FTUS41 KILN 162320
TAFDAY
TAF
KDAY 162320Z 1700/1724 30006KT P6SM OVC022
     FM170300 00000KT P6SM OVC018
     FM171400 14008KT P6SM SCT015 BKN150
     FM171900 15010KT P6SM BKN150=

USA.gov is the U.S. government's official web portal to all federal, state and local government web resources and services.